createdAt,value
2019-03-22T00:01:22.487Z,38.93
2019-03-22T00:03:52.131Z,53.87
2019-03-22T00:06:24.675Z,56.50
2019-03-22T00:08:54.183Z,62.87
2019-03-22T00:11:23.718Z,55.73
2019-03-22T00:13:53.362Z,58.10
2019-03-22T00:16:22.931Z,57.53
2019-03-22T00:18:53.322Z,55.60
2019-03-22T00:21:23.056Z,57.67
2019-03-22T00:23:52.635Z,58.87
2019-03-22T00:26:22.547Z,61.27
2019-03-22T00:28:53.873Z,60.97
2019-03-22T00:31:23.338Z,61.63
2019-03-22T00:33:52.953Z,51.03
2019-03-22T00:36:22.840Z,51.47
2019-03-22T00:38:52.468Z,47.50
2019-03-22T00:41:21.999Z,46.30
2019-03-22T00:43:51.486Z,46.67
2019-03-22T00:46:21.308Z,47.83
2019-03-22T00:48:52.715Z,56.27
2019-03-22T00:51:22.314Z,52.27
2019-03-22T00:53:53.751Z,52.03
2019-03-22T00:56:23.387Z,46.63
2019-03-22T00:58:54.356Z,45.67
2019-03-22T01:01:26.841Z,52.03
2019-03-22T01:03:56.425Z,53.27
2019-03-22T01:06:25.980Z,49.60
2019-03-22T01:08:57.357Z,47.13
2019-03-22T01:11:29.150Z,54.80
2019-03-22T01:13:58.792Z,52.10
2019-03-22T01:16:28.653Z,54.20
2019-03-22T01:18:58.219Z,47.50
2019-03-22T01:21:29.810Z,47.27
2019-03-22T01:24:00.038Z,53.53
2019-03-22T01:26:29.675Z,45.80
2019-03-22T01:28:59.316Z,50.27
2019-03-22T01:31:28.908Z,44.67
2019-03-22T01:33:59.604Z,45.60
2019-03-22T01:36:29.052Z,45.37
2019-03-22T01:38:58.757Z,47.07
2019-03-22T01:41:28.271Z,45.57
2019-03-22T01:43:58.798Z,46.30
2019-03-22T01:46:29.586Z,46.43
2019-03-22T01:48:59.114Z,47.37
2019-03-22T01:51:30.202Z,54.07
2019-03-22T01:53:59.991Z,43.37
2019-03-22T01:56:29.607Z,47.33
2019-03-22T01:58:59.649Z,53.07
2019-03-22T02:01:30.796Z,38.07
2019-03-22T02:04:00.447Z,42.07
2019-03-22T02:06:30.226Z,52.17
2019-03-22T02:08:59.761Z,37.33
2019-03-22T02:11:30.143Z,46.87
2019-03-22T02:14:02.621Z,43.37
2019-03-22T02:16:32.035Z,46.77
2019-03-22T02:19:01.630Z,47.40
2019-03-22T02:21:31.200Z,46.47
2019-03-22T02:24:00.733Z,42.27
2019-03-22T02:26:30.359Z,45.27
2019-03-22T02:28:59.844Z,48.20
2019-03-22T02:31:29.448Z,47.17
2019-03-22T02:33:58.994Z,49.90
2019-03-22T02:36:28.496Z,45.40
2019-03-22T02:38:58.167Z,44.67
2019-03-22T02:41:27.687Z,46.23
2019-03-22T02:43:57.379Z,45.53
2019-03-22T02:46:27.089Z,50.70
2019-03-22T02:48:56.608Z,52.70
2019-03-22T02:51:26.120Z,52.17
2019-03-22T02:53:59.428Z,50.37
2019-03-22T02:56:28.987Z,51.50
2019-03-22T02:58:59.477Z,49.20
2019-03-22T03:01:29.336Z,47.67
2019-03-22T03:03:58.964Z,51.43
2019-03-22T03:06:28.413Z,49.50
2019-03-22T03:08:57.870Z,63.50
2019-03-22T03:11:27.364Z,49.03
2019-03-22T03:13:56.927Z,46.90
2019-03-22T03:16:26.409Z,55.30
2019-03-22T03:18:55.919Z,48.87
2019-03-22T03:21:25.372Z,54.23
2019-03-22T03:23:54.880Z,63.43
2019-03-22T03:26:24.487Z,66.63
2019-03-22T03:28:53.937Z,56.70
2019-03-22T03:31:23.353Z,65.43
2019-03-22T03:33:53.984Z,62.00
2019-03-22T03:36:23.620Z,54.00
2019-03-22T03:38:53.135Z,45.13
2019-03-22T03:41:22.665Z,60.47
2019-03-22T03:43:52.378Z,52.40
2019-03-22T03:46:21.923Z,55.77
2019-03-22T03:48:51.592Z,50.77
2019-03-22T03:51:21.085Z,55.17
2019-03-22T03:53:50.595Z,60.37
2019-03-22T03:56:20.230Z,53.97
2019-03-22T03:58:52.818Z,60.47
2019-03-22T04:01:20.929Z,57.27
2019-03-22T04:03:50.421Z,55.97
2019-03-22T04:06:19.989Z,58.00
2019-03-22T04:08:49.594Z,52.53
2019-03-22T04:11:19.184Z,55.37
2019-03-22T04:13:48.679Z,57.70
2019-03-22T04:16:18.251Z,60.00
2019-03-22T04:18:47.788Z,56.63
2019-03-22T04:21:17.503Z,52.43
2019-03-22T04:23:47.061Z,52.37
2019-03-22T04:26:16.536Z,55.40
2019-03-22T04:28:46.159Z,47.60
2019-03-22T04:31:15.708Z,51.90
2019-03-22T04:33:45.220Z,54.20
2019-03-22T04:36:14.730Z,50.03
2019-03-22T04:38:44.264Z,51.87
2019-03-22T04:41:13.791Z,46.20
2019-03-22T04:43:43.291Z,49.63
2019-03-22T04:46:13.795Z,53.40
2019-03-22T04:48:44.232Z,43.63
2019-03-22T04:51:14.215Z,61.20
2019-03-22T04:53:50.419Z,57.23
2019-03-22T04:56:21.748Z,58.43
2019-03-22T04:58:52.260Z,66.47
2019-03-22T05:01:23.949Z,58.03
2019-03-22T05:03:54.659Z,55.40
2019-03-22T05:06:24.755Z,60.77
2019-03-22T05:08:57.059Z,55.93
2019-03-22T05:11:27.659Z,61.07
2019-03-22T05:13:58.806Z,57.17
2019-03-22T05:16:29.267Z,56.83
2019-03-22T05:19:02.116Z,68.03
2019-03-22T05:21:32.382Z,69.57
2019-03-22T05:24:04.159Z,65.30
2019-03-22T05:26:40.614Z,70.33
2019-03-22T05:29:11.804Z,59.33
2019-03-22T05:32:09.954Z,63.80
2019-03-22T05:34:39.575Z,66.83
2019-03-22T05:37:09.135Z,55.77
2019-03-22T05:39:44.263Z,61.93
2019-03-22T05:42:13.992Z,68.27
2019-03-22T05:44:43.584Z,61.93
2019-03-22T05:47:13.170Z,65.07
2019-03-22T05:49:44.373Z,64.13
2019-03-22T05:52:13.911Z,68.60
2019-03-22T05:54:45.429Z,59.27
2019-03-22T05:57:16.487Z,75.47
2019-03-22T05:59:46.149Z,56.90
2019-03-22T06:02:17.203Z,66.53
2019-03-22T06:04:49.853Z,67.80
2019-03-22T06:07:22.759Z,69.80
2019-03-22T06:09:53.157Z,61.23
2019-03-22T06:12:26.114Z,74.13
2019-03-22T06:14:58.681Z,74.70
2019-03-22T06:17:30.495Z,72.83
2019-03-22T06:20:11.774Z,76.43
2019-03-22T06:22:42.206Z,82.27
2019-03-22T06:25:15.118Z,68.50
2019-03-22T06:27:47.647Z,87.17
2019-03-22T06:30:20.578Z,71.97
2019-03-22T06:32:50.669Z,75.87
2019-03-22T06:35:20.233Z,89.17
2019-03-22T06:37:55.441Z,77.27
2019-03-22T06:40:27.959Z,74.60
2019-03-22T06:43:01.404Z,85.33
2019-03-22T06:45:35.544Z,78.10
2019-03-22T06:48:05.544Z,82.40
2019-03-22T06:50:35.662Z,85.00
2019-03-22T06:53:07.862Z,87.30
2019-03-22T06:55:41.523Z,102.17
2019-03-22T06:58:12.984Z,83.37
2019-03-22T07:00:44.823Z,85.67
2019-03-22T07:03:15.592Z,81.77
2019-03-22T07:05:45.284Z,87.67
2019-03-22T07:08:14.780Z,82.17
2019-03-22T07:10:46.686Z,82.90
2019-03-22T07:13:16.223Z,85.07
2019-03-22T07:15:45.767Z,79.90
2019-03-22T07:18:16.667Z,75.87
2019-03-22T07:20:46.696Z,73.43
2019-03-22T07:23:17.910Z,50.87
2019-03-22T07:25:51.172Z,57.87
2019-03-22T07:28:21.752Z,49.83
2019-03-22T07:30:58.353Z,53.10
2019-03-22T07:33:27.940Z,47.70
2019-03-22T07:35:57.614Z,52.50
2019-03-22T07:38:27.247Z,49.60
2019-03-22T07:40:58.236Z,48.50
2019-03-22T07:43:28.380Z,46.43
2019-03-22T07:45:58.987Z,45.40
2019-03-22T07:48:28.932Z,41.73
2019-03-22T07:50:59.154Z,41.80
2019-03-22T07:53:28.886Z,43.00
2019-03-22T07:55:58.314Z,40.57
2019-03-22T07:58:28.148Z,40.77
2019-03-22T08:00:57.604Z,39.53
2019-03-22T08:03:27.521Z,36.93
2019-03-22T08:05:57.933Z,36.97
2019-03-22T08:08:32.960Z,35.70
2019-03-22T08:11:03.331Z,43.87
2019-03-22T08:13:33.012Z,35.03
2019-03-22T08:16:02.827Z,33.80
2019-03-22T08:18:32.423Z,38.40
2019-03-22T08:21:04.402Z,39.20
2019-03-22T08:23:37.513Z,31.83
2019-03-22T08:26:07.217Z,40.60
2019-03-22T08:28:37.488Z,43.50
2019-03-22T08:31:07.010Z,37.37
2019-03-22T08:33:36.805Z,36.63
2019-03-22T08:36:06.499Z,37.97
2019-03-22T08:38:37.329Z,43.23
2019-03-22T08:41:06.930Z,35.53
2019-03-22T08:43:36.375Z,35.70
2019-03-22T08:46:07.078Z,38.00
2019-03-22T08:48:39.743Z,33.70
2019-03-22T08:51:13.768Z,40.90
2019-03-22T08:53:54.686Z,44.87
2019-03-22T08:56:14.456Z,40.27
2019-03-22T08:58:46.763Z,41.37
2019-03-22T09:01:17.886Z,38.20
2019-03-22T09:03:47.513Z,42.63
2019-03-22T09:06:17.500Z,42.23
2019-03-22T09:08:48.035Z,43.53
2019-03-22T09:11:18.275Z,45.27
2019-03-22T09:13:48.089Z,40.90
2019-03-22T09:16:17.820Z,41.83
2019-03-22T09:18:48.386Z,40.80
2019-03-22T09:21:19.377Z,40.93
2019-03-22T09:23:50.693Z,38.20
2019-03-22T09:26:20.208Z,40.83
2019-03-22T09:28:49.864Z,43.90
2019-03-22T09:31:19.583Z,34.93
2019-03-22T09:33:49.192Z,34.30
2019-03-22T09:36:18.713Z,37.47
2019-03-22T09:38:51.163Z,37.00
2019-03-22T09:41:21.534Z,37.40
2019-03-22T09:43:51.017Z,38.67
2019-03-22T09:46:23.364Z,44.20
2019-03-22T09:48:55.709Z,41.63
2019-03-22T09:51:25.222Z,37.97
2019-03-22T09:53:56.801Z,37.70
2019-03-22T09:56:28.424Z,42.60
2019-03-22T09:58:58.988Z,37.20
2019-03-22T10:01:30.649Z,39.43
2019-03-22T10:04:00.272Z,41.67
2019-03-22T10:06:29.823Z,46.83
2019-03-22T10:09:05.487Z,38.27
2019-03-22T10:11:35.442Z,42.10
2019-03-22T10:14:05.124Z,41.53
2019-03-22T10:16:34.818Z,40.47
2019-03-22T10:19:04.838Z,43.13
2019-03-22T10:21:34.578Z,43.93
2019-03-22T10:24:04.251Z,43.80
2019-03-22T10:26:36.908Z,44.37
2019-03-22T10:29:07.072Z,37.03
2019-03-22T10:31:37.910Z,40.30
2019-03-22T10:34:07.632Z,48.57
2019-03-22T10:36:37.283Z,41.40
2019-03-22T10:39:09.279Z,43.27
2019-03-22T10:41:38.943Z,40.70
2019-03-22T10:44:08.673Z,45.47
2019-03-22T10:46:38.329Z,48.23
2019-03-22T10:49:08.030Z,38.53
2019-03-22T10:51:39.527Z,52.33
2019-03-22T10:54:09.097Z,41.37
2019-03-22T10:56:38.796Z,50.90
2019-03-22T10:59:08.380Z,46.93
2019-03-22T11:01:48.583Z,43.63
2019-03-22T11:06:38.849Z,50.97
2019-03-22T11:09:09.555Z,49.20
2019-03-22T11:11:39.420Z,45.43
2019-03-22T11:14:09.207Z,44.50
2019-03-22T11:16:39.748Z,43.83
2019-03-22T11:19:12.613Z,40.90
2019-03-22T11:21:49.444Z,45.50
2019-03-22T11:24:20.645Z,39.73
2019-03-22T11:26:50.434Z,41.13
2019-03-22T11:29:20.044Z,45.87
2019-03-22T11:31:50.329Z,46.07
2019-03-22T11:34:19.918Z,49.47
2019-03-22T11:36:49.671Z,52.30
2019-03-22T11:39:19.384Z,42.57
2019-03-22T11:41:49.036Z,46.27
2019-03-22T11:44:18.837Z,41.97
2019-03-22T11:46:48.560Z,48.20
2019-03-22T11:49:18.399Z,38.70
2019-03-22T11:51:47.928Z,42.53
2019-03-22T11:54:17.511Z,45.60
2019-03-22T11:56:47.016Z,47.37
2019-03-22T11:59:16.539Z,39.10
2019-03-22T12:01:46.028Z,39.00
2019-03-22T12:04:15.660Z,42.93
2019-03-22T12:06:45.416Z,39.30
2019-03-22T12:09:15.180Z,44.70
2019-03-22T12:11:45.041Z,48.07
2019-03-22T12:14:14.804Z,41.80
2019-03-22T12:16:44.307Z,46.60
2019-03-22T12:19:13.939Z,42.27
2019-03-22T12:21:43.518Z,42.80
2019-03-22T12:24:13.121Z,37.63
2019-03-22T12:26:42.651Z,46.03
2019-03-22T12:29:12.567Z,40.80
2019-03-22T12:31:42.173Z,35.63
2019-03-22T12:34:11.615Z,39.03
2019-03-22T12:36:41.147Z,44.77
2019-03-22T12:39:11.076Z,34.70
2019-03-22T12:41:40.593Z,33.93
2019-03-22T12:44:10.263Z,36.90
2019-03-22T12:46:39.895Z,35.50
2019-03-22T12:49:09.482Z,33.77
2019-03-22T12:51:38.988Z,42.90
2019-03-22T12:54:08.449Z,44.77
2019-03-22T12:56:37.918Z,38.37
2019-03-22T12:59:07.459Z,36.70
2019-03-22T13:01:36.944Z,36.40
2019-03-22T13:04:06.579Z,32.43
2019-03-22T13:06:36.187Z,40.20
2019-03-22T13:09:08.811Z,34.90
2019-03-22T13:11:38.316Z,34.13
2019-03-22T13:14:08.005Z,31.43
2019-03-22T13:16:37.659Z,40.13
2019-03-22T13:19:07.080Z,35.27
2019-03-22T13:21:36.645Z,30.53
2019-03-22T13:24:06.295Z,31.90
2019-03-22T13:26:35.880Z,32.77
2019-03-22T13:29:05.671Z,31.03
2019-03-22T13:31:35.286Z,26.97
2019-03-22T13:34:04.935Z,33.57
2019-03-22T13:36:34.812Z,31.87
2019-03-22T13:39:06.243Z,34.17
2019-03-22T13:41:35.889Z,30.50
2019-03-22T13:44:06.064Z,32.07
2019-03-22T13:46:40.095Z,33.33
2019-03-22T13:49:06.823Z,31.83
2019-03-22T13:51:36.587Z,32.63
2019-03-22T13:54:06.135Z,27.73
2019-03-22T13:56:35.827Z,35.17
2019-03-22T13:59:05.433Z,35.60
2019-03-22T14:01:35.045Z,30.83
2019-03-22T14:04:04.650Z,39.77
2019-03-22T14:06:34.201Z,30.67
2019-03-22T14:09:04.600Z,30.40
2019-03-22T14:11:34.200Z,32.50
2019-03-22T14:14:03.816Z,32.93
2019-03-22T14:16:33.255Z,25.60
2019-03-22T14:19:02.755Z,29.13
2019-03-22T14:21:32.191Z,29.57
2019-03-22T14:24:01.799Z,28.93
2019-03-22T14:26:31.315Z,34.20
2019-03-22T14:29:01.199Z,26.17
2019-03-22T14:31:30.724Z,26.80
2019-03-22T14:34:00.254Z,35.57
2019-03-22T14:36:29.831Z,23.90
2019-03-22T14:38:59.430Z,28.63
2019-03-22T14:41:29.039Z,29.60
2019-03-22T14:43:58.595Z,28.57
2019-03-22T14:46:28.044Z,28.70
2019-03-22T14:48:57.540Z,32.10
2019-03-22T14:51:27.109Z,29.57
2019-03-22T14:53:56.703Z,32.33
2019-03-22T14:56:27.640Z,26.57
2019-03-22T14:58:57.263Z,28.77
2019-03-22T15:01:26.838Z,31.63
2019-03-22T15:03:56.443Z,28.27
2019-03-22T15:06:25.934Z,31.77
2019-03-22T15:08:55.576Z,31.03
2019-03-22T15:11:25.123Z,29.40
2019-03-22T15:14:08.136Z,28.57
2019-03-22T15:16:56.792Z,30.90
2019-03-22T15:19:54.970Z,29.60
2019-03-22T15:22:36.223Z,30.27
2019-03-22T15:25:35.380Z,26.33
2019-03-22T15:28:37.373Z,27.90
2019-03-22T15:31:26.492Z,32.77
2019-03-22T15:34:04.878Z,29.77
2019-03-22T15:36:52.327Z,29.90
2019-03-22T15:39:50.343Z,25.23
2019-03-22T15:42:23.422Z,27.43
2019-03-22T15:44:53.112Z,29.27
2019-03-22T15:47:22.922Z,31.40
2019-03-22T15:49:53.584Z,24.87
2019-03-22T15:52:23.312Z,22.30
2019-03-22T15:54:53.491Z,23.37
2019-03-22T15:57:23.068Z,25.50
2019-03-22T15:59:52.731Z,26.97
2019-03-22T16:02:22.329Z,25.63
2019-03-22T16:04:52.206Z,28.67
2019-03-22T16:07:21.918Z,23.93
2019-03-22T16:09:51.511Z,25.80
2019-03-22T16:12:21.171Z,21.00
2019-03-22T16:14:50.771Z,29.00
2019-03-22T16:17:20.420Z,20.33
2019-03-22T16:19:50.065Z,25.93
2019-03-22T16:22:19.775Z,24.10
2019-03-22T16:24:49.651Z,23.27
2019-03-22T16:27:19.345Z,19.73
2019-03-22T16:29:48.971Z,19.93
2019-03-22T16:32:18.678Z,23.63
2019-03-22T16:34:48.498Z,23.70
2019-03-22T16:37:18.078Z,21.13
2019-03-22T16:39:47.712Z,23.60
2019-03-22T16:42:17.292Z,25.33
2019-03-22T16:44:46.883Z,19.10
2019-03-22T16:47:16.635Z,29.33
2019-03-22T16:49:46.300Z,19.73
2019-03-22T16:52:16.083Z,22.77
2019-03-22T16:54:45.743Z,20.67
2019-03-22T16:57:15.323Z,22.60
2019-03-22T16:59:45.026Z,22.30
2019-03-22T17:02:14.677Z,20.30
2019-03-22T17:04:44.313Z,26.27
2019-03-22T17:07:14.853Z,23.67
2019-03-22T17:09:44.408Z,28.87
2019-03-22T17:12:13.968Z,22.87
2019-03-22T17:14:43.625Z,23.00
2019-03-22T17:17:13.275Z,24.50
2019-03-22T17:19:44.849Z,26.87
2019-03-22T17:22:13.983Z,25.60
2019-03-22T17:24:43.544Z,30.53
2019-03-22T17:27:13.034Z,33.17
2019-03-22T17:29:42.655Z,27.13
2019-03-22T17:32:12.203Z,28.27
2019-03-22T17:37:19.200Z,28.30
2019-03-22T17:39:48.905Z,30.27
2019-03-22T17:42:18.567Z,25.77
2019-03-22T17:44:48.226Z,30.57
2019-03-22T17:47:18.249Z,22.33
2019-03-22T17:49:48.673Z,28.53
2019-03-22T17:52:18.285Z,20.50
2019-03-22T17:54:47.984Z,24.20
2019-03-22T17:57:18.902Z,26.93
2019-03-22T17:59:48.675Z,23.83
2019-03-22T18:02:18.351Z,27.37
2019-03-22T18:04:48.097Z,26.70
2019-03-22T18:07:17.769Z,28.20
2019-03-22T18:09:47.472Z,25.33
2019-03-22T18:12:17.121Z,28.97
2019-03-22T18:14:47.602Z,28.40
2019-03-22T18:17:17.263Z,26.43
2019-03-22T18:19:47.415Z,26.33
2019-03-22T18:22:17.125Z,25.60
2019-03-22T18:24:46.750Z,25.63
2019-03-22T18:27:16.608Z,28.63
2019-03-22T18:29:46.275Z,26.63
2019-03-22T18:32:16.762Z,24.93
2019-03-22T18:34:54.173Z,28.63
2019-03-22T18:37:27.611Z,26.50
2019-03-22T18:39:57.296Z,25.20
2019-03-22T18:42:27.793Z,28.47
2019-03-22T18:44:59.505Z,25.20
2019-03-22T18:47:32.136Z,27.33
2019-03-22T18:50:02.395Z,32.93
2019-03-22T18:52:36.374Z,31.70
2019-03-22T18:55:08.041Z,34.13
2019-03-22T18:57:38.774Z,38.67
2019-03-22T19:00:09.073Z,30.13
2019-03-22T19:02:38.891Z,33.50
2019-03-22T19:05:11.695Z,38.63
2019-03-22T19:07:41.998Z,32.07
2019-03-22T19:10:15.628Z,38.03
2019-03-22T19:12:47.962Z,34.17
2019-03-22T19:15:18.084Z,42.90
2019-03-22T19:17:47.876Z,33.40
2019-03-22T19:20:21.198Z,36.70
2019-03-22T19:22:52.288Z,32.40
2019-03-22T19:25:21.965Z,35.73
2019-03-22T19:27:53.445Z,32.67
2019-03-22T19:30:23.919Z,30.43
2019-03-22T19:32:53.422Z,31.80
2019-03-22T19:35:23.088Z,39.10
2019-03-22T19:37:52.863Z,30.17
2019-03-22T19:40:24.758Z,32.60
2019-03-22T19:42:54.617Z,32.47
2019-03-22T19:45:27.514Z,38.17
2019-03-22T19:47:58.808Z,35.73
2019-03-22T19:50:28.594Z,46.47
2019-03-22T19:52:59.341Z,54.97
2019-03-22T19:55:30.953Z,45.20
2019-03-22T19:58:00.640Z,49.50
2019-03-22T20:00:31.105Z,40.77
2019-03-22T20:03:02.427Z,43.43
2019-03-22T20:05:36.642Z,37.77
2019-03-22T20:08:11.380Z,38.47
2019-03-22T20:10:43.930Z,45.20
2019-03-22T20:13:14.475Z,47.90
2019-03-22T20:15:44.522Z,48.20
2019-03-22T20:18:14.186Z,47.30
2019-03-22T20:20:50.258Z,46.17
2019-03-22T20:23:20.859Z,55.97
2019-03-22T20:25:51.080Z,47.37
2019-03-22T20:28:20.860Z,52.67
2019-03-22T20:30:50.508Z,62.33
2019-03-22T20:33:20.787Z,43.23
2019-03-22T20:35:50.536Z,41.20
2019-03-22T20:38:22.287Z,37.50
2019-03-22T20:40:52.644Z,35.43
2019-03-22T20:43:22.307Z,35.30
2019-03-22T20:45:52.610Z,35.10
2019-03-22T20:48:22.830Z,37.33
2019-03-22T20:50:52.492Z,33.53
2019-03-22T20:53:23.096Z,35.57
2019-03-22T20:55:52.744Z,30.63
2019-03-22T20:58:23.108Z,34.83
2019-03-22T21:00:52.877Z,36.23
2019-03-22T21:03:22.436Z,36.93
2019-03-22T21:05:51.994Z,31.87
2019-03-22T21:08:21.523Z,32.10
2019-03-22T21:10:51.304Z,37.33
2019-03-22T21:13:22.005Z,36.60
2019-03-22T21:15:52.311Z,36.90
2019-03-22T21:18:23.938Z,34.23
2019-03-22T21:20:54.905Z,41.13
2019-03-22T21:23:35.749Z,31.03
2019-03-22T21:25:58.628Z,31.87
2019-03-22T21:28:28.859Z,37.97
2019-03-22T21:30:58.668Z,33.37
2019-03-22T21:33:28.259Z,35.47
2019-03-22T21:35:57.907Z,33.77
2019-03-22T21:38:27.706Z,32.67
2019-03-22T21:40:57.466Z,31.97
2019-03-22T21:43:27.205Z,37.23
2019-03-22T21:45:56.981Z,33.37
2019-03-22T21:48:27.933Z,37.20
2019-03-22T21:50:58.106Z,30.40
2019-03-22T21:53:29.268Z,34.80
2019-03-22T21:55:59.813Z,45.37
2019-03-22T21:58:30.361Z,39.13
2019-03-22T22:01:00.318Z,45.17
2019-03-22T22:03:30.872Z,39.33
2019-03-22T22:06:00.657Z,31.97
2019-03-22T22:08:30.296Z,41.13
2019-03-22T22:11:00.282Z,39.97
2019-03-22T22:13:29.869Z,36.37
2019-03-22T22:15:59.626Z,38.10
2019-03-22T22:18:29.446Z,30.10
2019-03-22T22:20:59.060Z,45.50
2019-03-22T22:23:28.891Z,43.33
2019-03-22T22:25:58.594Z,38.47
2019-03-22T22:28:28.126Z,34.93
2019-03-22T22:30:57.758Z,38.23
2019-03-22T22:33:27.299Z,34.47
2019-03-22T22:35:58.910Z,35.97
2019-03-22T22:38:28.300Z,31.33
2019-03-22T22:40:57.842Z,33.13
2019-03-22T22:43:27.435Z,35.77
2019-03-22T22:45:56.907Z,35.50
2019-03-22T22:48:26.504Z,31.70
2019-03-22T22:50:56.127Z,35.47
2019-03-22T22:53:25.759Z,34.10
2019-03-22T22:55:55.368Z,32.57
2019-03-22T22:58:24.871Z,35.93
2019-03-22T23:00:54.479Z,28.63
2019-03-22T23:03:24.093Z,33.93
2019-03-22T23:05:53.623Z,38.63
2019-03-22T23:08:23.232Z,32.77
2019-03-22T23:10:53.042Z,34.87
2019-03-22T23:13:22.526Z,32.17
2019-03-22T23:15:52.152Z,34.57
2019-03-22T23:18:21.602Z,37.07
2019-03-22T23:20:51.144Z,36.30
2019-03-22T23:23:20.722Z,50.20
2019-03-22T23:25:50.461Z,43.23
2019-03-22T23:28:20.068Z,43.67
2019-03-22T23:30:49.715Z,42.77
2019-03-22T23:33:19.177Z,40.63
2019-03-22T23:35:48.730Z,36.43
2019-03-22T23:38:18.284Z,41.53
2019-03-22T23:40:47.824Z,40.07
2019-03-22T23:43:17.288Z,41.50
2019-03-22T23:45:46.907Z,40.10
2019-03-22T23:48:16.436Z,34.77
2019-03-22T23:50:46.027Z,45.73
2019-03-22T23:53:15.693Z,34.37
2019-03-22T23:55:45.211Z,35.03
2019-03-22T23:58:14.707Z,44.57
